sensor_id;sensor_type;location;lat;lon;timestamp;pressure;altitude;pressure_sealevel;temperature;humidity
706;BME280;21234;48.690;9.016;2023-12-20T00:01:59;96098.25;;;4.66;100.00
706;BME280;21234;48.690;9.016;2023-12-20T00:04:26;96097.44;;;4.65;100.00
706;BME280;21234;48.690;9.016;2023-12-20T00:06:52;96098.91;;;4.61;100.00
706;BME280;21234;48.690;9.016;2023-12-20T00:09:19;96101.16;;;4.64;100.00
706;BME280;21234;48.690;9.016;2023-12-20T00:11:45;96102.59;;;4.67;100.00
706;BME280;21234;48.690;9.016;2023-12-20T00:14:12;96101.78;;;4.66;100.00
706;BME280;21234;48.690;9.016;2023-12-20T00:16:40;96095.13;;;4.69;100.00
706;BME280;21234;48.690;9.016;2023-12-20T00:19:07;96094.31;;;4.68;100.00
706;BME280;21234;48.690;9.016;2023-12-20T00:21:33;96090.41;;;4.64;100.00
706;BME280;21234;48.690;9.016;2023-12-20T00:24:00;96088.75;;;4.63;100.00
706;BME280;21234;48.690;9.016;2023-12-20T00:26:27;96081.91;;;4.61;100.00
706;BME280;21234;48.690;9.016;2023-12-20T00:28:54;96080.88;;;4.62;100.00
706;BME280;21234;48.690;9.016;2023-12-20T00:31:20;96076.53;;;4.61;100.00
706;BME280;21234;48.690;9.016;2023-12-20T00:33:48;96075.31;;;4.57;100.00
706;BME280;21234;48.690;9.016;2023-12-20T00:36:15;96075.78;;;4.54;100.00
706;BME280;21234;48.690;9.016;2023-12-20T00:38:42;96078.22;;;4.55;100.00
706;BME280;21234;48.690;9.016;2023-12-20T00:41:08;96073.09;;;4.54;100.00
706;BME280;21234;48.690;9.016;2023-12-20T00:43:35;96066.31;;;4.45;100.00
706;BME280;21234;48.690;9.016;2023-12-20T00:46:01;96066.13;;;4.39;100.00
706;BME280;21234;48.690;9.016;2023-12-20T00:48:27;96059.47;;;4.42;100.00
706;BME280;21234;48.690;9.016;2023-12-20T00:50:57;96062.59;;;4.39;100.00
706;BME280;21234;48.690;9.016;2023-12-20T00:53:23;96059.31;;;4.37;100.00
706;BME280;21234;48.690;9.016;2023-12-20T00:55:50;96058.88;;;4.40;100.00
706;BME280;21234;48.690;9.016;2023-12-20T00:58:17;96071.91;;;4.43;100.00
706;BME280;21234;48.690;9.016;2023-12-20T01:00:43;96068.00;;;4.39;100.00
706;BME280;21234;48.690;9.016;2023-12-20T01:03:10;96062.59;;;4.39;100.00
706;BME280;21234;48.690;9.016;2023-12-20T01:05:36;96065.13;;;4.34;100.00
706;BME280;21234;48.690;9.016;2023-12-20T01:08:05;96079.00;;;4.31;100.00
706;BME280;21234;48.690;9.016;2023-12-20T01:10:31;96074.88;;;4.28;100.00
706;BME280;21234;48.690;9.016;2023-12-20T01:12:58;96071.97;;;4.30;100.00
706;BME280;21234;48.690;9.016;2023-12-20T01:15:25;96072.19;;;4.28;100.00
706;BME280;21234;48.690;9.016;2023-12-20T01:17:51;96076.81;;;4.21;100.00
706;BME280;21234;48.690;9.016;2023-12-20T01:20:18;96073.50;;;4.19;100.00
706;BME280;21234;48.690;9.016;2023-12-20T01:22:45;96070.59;;;4.21;100.00
706;BME280;21234;48.690;9.016;2023-12-20T01:25:13;96071.03;;;4.18;100.00
706;BME280;21234;48.690;9.016;2023-12-20T01:27:40;96069.16;;;4.18;100.00
706;BME280;21234;48.690;9.016;2023-12-20T01:30:07;96071.03;;;4.18;100.00
706;BME280;21234;48.690;9.016;2023-12-20T01:32:34;96072.69;;;4.12;100.00
706;BME280;21234;48.690;9.016;2023-12-20T01:35:01;96073.53;;;4.13;100.00
706;BME280;21234;48.690;9.016;2023-12-20T01:37:27;96070.41;;;4.16;100.00
706;BME280;21234;48.690;9.016;2023-12-20T01:39:54;96076.19;;;4.19;100.00
706;BME280;21234;48.690;9.016;2023-12-20T01:42:22;96069.97;;;4.19;100.00
706;BME280;21234;48.690;9.016;2023-12-20T01:44:49;96073.50;;;4.19;100.00
706;BME280;21234;48.690;9.016;2023-12-20T01:47:16;96073.88;;;4.23;100.00
706;BME280;21234;48.690;9.016;2023-12-20T01:49:43;96071.63;;;4.20;100.00
706;BME280;21234;48.690;9.016;2023-12-20T01:52:10;96078.44;;;4.22;100.00
706;BME280;21234;48.690;9.016;2023-12-20T01:54:37;96078.22;;;4.24;100.00
706;BME280;21234;48.690;9.016;2023-12-20T01:57:05;96068.66;;;4.28;100.00
706;BME280;21234;48.690;9.016;2023-12-20T01:59:34;96070.75;;;4.26;100.00
706;BME280;21234;48.690;9.016;2023-12-20T02:02:03;96075.50;;;4.24;100.00
706;BME280;21234;48.690;9.016;2023-12-20T02:04:30;96065.97;;;4.28;100.00
706;BME280;21234;48.690;9.016;2023-12-20T02:06:57;96061.63;;;4.27;100.00
706;BME280;21234;48.690;9.016;2023-12-20T02:09:25;96061.22;;;4.30;100.00
706;BME280;21234;48.690;9.016;2023-12-20T02:11:53;96071.75;;;4.31;100.00
706;BME280;21234;48.690;9.016;2023-12-20T02:14:20;96072.19;;;4.28;100.00
706;BME280;21234;48.690;9.016;2023-12-20T02:16:48;96070.75;;;4.26;100.00
706;BME280;21234;48.690;9.016;2023-12-20T02:19:15;96067.22;;;4.25;100.00
706;BME280;21234;48.690;9.016;2023-12-20T02:21:45;96069.91;;;4.25;100.00
706;BME280;21234;48.690;9.016;2023-12-20T02:24:11;96066.63;;;4.23;100.00
706;BME280;21234;48.690;9.016;2023-12-20T02:26:38;96067.44;;;4.24;100.00
706;BME280;21234;48.690;9.016;2023-12-20T02:29:05;96069.09;;;4.25;100.00
706;BME280;21234;48.690;9.016;2023-12-20T02:31:31;96073.84;;;4.29;100.00
706;BME280;21234;48.690;9.016;2023-12-20T02:33:58;96067.22;;;4.25;100.00
706;BME280;21234;48.690;9.016;2023-12-20T02:36:24;96072.81;;;4.24;100.00
706;BME280;21234;48.690;9.016;2023-12-20T02:38:52;96071.19;;;4.23;100.00
706;BME280;21234;48.690;9.016;2023-12-20T02:41:19;96070.38;;;4.22;100.00
706;BME280;21234;48.690;9.016;2023-12-20T02:43:46;96070.59;;;4.21;100.00
706;BME280;21234;48.690;9.016;2023-12-20T02:46:14;96068.47;;;4.23;100.00
706;BME280;21234;48.690;9.016;2023-12-20T02:48:42;96069.56;;;4.22;100.00
706;BME280;21234;48.690;9.016;2023-12-20T02:51:09;96068.28;;;4.24;100.00
706;BME280;21234;48.690;9.016;2023-12-20T02:53:38;96069.56;;;4.22;100.00
706;BME280;21234;48.690;9.016;2023-12-20T02:56:06;96072.63;;;4.25;100.00
706;BME280;21234;48.690;9.016;2023-12-20T02:58:33;96076.81;;;4.21;100.00
706;BME280;21234;48.690;9.016;2023-12-20T03:01:00;96083.38;;;4.25;100.00
706;BME280;21234;48.690;9.016;2023-12-20T03:03:26;96085.44;;;4.23;100.00
706;BME280;21234;48.690;9.016;2023-12-20T03:05:53;96079.44;;;4.28;100.00
706;BME280;21234;48.690;9.016;2023-12-20T03:08:20;96078.19;;;4.30;100.00
706;BME280;21234;48.690;9.016;2023-12-20T03:10:46;96085.00;;;4.33;100.00
706;BME280;21234;48.690;9.016;2023-12-20T03:13:14;96091.41;;;4.32;100.00
706;BME280;21234;48.690;9.016;2023-12-20T03:15:41;96093.31;;;4.25;100.00
706;BME280;21234;48.690;9.016;2023-12-20T03:18:07;96094.97;;;4.26;100.00
706;BME280;21234;48.690;9.016;2023-12-20T03:20:34;96088.75;;;4.25;100.00
706;BME280;21234;48.690;9.016;2023-12-20T03:23:01;96099.09;;;4.28;100.00
706;BME280;21234;48.690;9.016;2023-12-20T03:25:27;96091.91;;;4.22;100.00
706;BME280;21234;48.690;9.016;2023-12-20T03:27:54;96101.34;;;4.31;100.00
706;BME280;21234;48.690;9.016;2023-12-20T03:30:22;96098.69;;;4.25;100.00
706;BME280;21234;48.690;9.016;2023-12-20T03:32:49;96097.66;;;4.26;100.00
706;BME280;21234;48.690;9.016;2023-12-20T03:35:15;96104.53;;;4.22;100.00
706;BME280;21234;48.690;9.016;2023-12-20T03:37:42;96102.69;;;4.16;100.00
706;BME280;21234;48.690;9.016;2023-12-20T03:40:09;96096.69;;;4.14;100.00
706;BME280;21234;48.690;9.016;2023-12-20T03:42:36;96108.69;;;4.18;100.00
706;BME280;21234;48.690;9.016;2023-12-20T03:45:03;96104.59;;;4.09;100.00
706;BME280;21234;48.690;9.016;2023-12-20T03:47:31;96106.84;;;4.12;100.00
706;BME280;21234;48.690;9.016;2023-12-20T03:49:58;96111.22;;;4.06;100.00
706;BME280;21234;48.690;9.016;2023-12-20T03:52:25;96111.84;;;4.01;100.00
706;BME280;21234;48.690;9.016;2023-12-20T03:54:51;96106.69;;;4.00;100.00
706;BME280;21234;48.690;9.016;2023-12-20T03:57:18;96110.19;;;4.00;100.00
706;BME280;21234;48.690;9.016;2023-12-20T03:59:45;96112.47;;;3.97;100.00
706;BME280;21234;48.690;9.016;2023-12-20T04:02:12;96108.13;;;3.96;100.00
706;BME280;21234;48.690;9.016;2023-12-20T04:04:40;96107.31;;;3.95;100.00
706;BME280;21234;48.690;9.016;2023-12-20T04:07:06;96110.00;;;3.95;100.00
706;BME280;21234;48.690;9.016;2023-12-20T04:09:32;96111.25;;;3.93;100.00
706;BME280;21234;48.690;9.016;2023-12-20T04:11:59;96118.69;;;3.91;100.00
706;BME280;21234;48.690;9.016;2023-12-20T04:14:25;96114.34;;;3.96;100.00
706;BME280;21234;48.690;9.016;2023-12-20T04:16:52;96108.34;;;3.94;100.00
706;BME280;21234;48.690;9.016;2023-12-20T04:19:19;96105.03;;;3.92;100.00
706;BME280;21234;48.690;9.016;2023-12-20T04:21:47;96106.09;;;3.91;100.00
706;BME280;21234;48.690;9.016;2023-12-20T04:24:14;96123.09;;;3.85;100.00
706;BME280;21234;48.690;9.016;2023-12-20T04:26:41;96132.81;;;3.86;100.00
706;BME280;21234;48.690;9.016;2023-12-20T04:29:07;96132.81;;;3.80;100.00
706;BME280;21234;48.690;9.016;2023-12-20T04:31:34;96128.88;;;3.82;100.00
706;BME280;21234;48.690;9.016;2023-12-20T04:34:00;96129.31;;;3.79;100.00
706;BME280;21234;48.690;9.016;2023-12-20T04:36:27;96126.00;;;3.70;100.00
706;BME280;21234;48.690;9.016;2023-12-20T04:38:56;96129.75;;;3.69;100.00
706;BME280;21234;48.690;9.016;2023-12-20T04:41:23;96134.50;;;3.74;100.00
706;BME280;21234;48.690;9.016;2023-12-20T04:43:49;96136.78;;;3.70;100.00
706;BME280;21234;48.690;9.016;2023-12-20T04:46:16;96146.69;;;3.63;100.00
706;BME280;21234;48.690;9.016;2023-12-20T04:48:43;96158.50;;;3.69;100.00
706;BME280;21234;48.690;9.016;2023-12-20T04:51:09;96154.16;;;3.68;100.00
706;BME280;21234;48.690;9.016;2023-12-20T04:53:36;96157.88;;;3.74;100.00
706;BME280;21234;48.690;9.016;2023-12-20T04:56:05;96149.59;;;3.75;100.00
706;BME280;21234;48.690;9.016;2023-12-20T04:58:31;96163.44;;;3.72;100.00
706;BME280;21234;48.690;9.016;2023-12-20T05:00:58;96159.72;;;3.66;100.00
706;BME280;21234;48.690;9.016;2023-12-20T05:03:25;96157.25;;;3.71;100.00
706;BME280;21234;48.690;9.016;2023-12-20T05:05:51;96157.66;;;3.75;100.00
706;BME280;21234;48.690;9.016;2023-12-20T05:08:18;96165.09;;;3.73;100.00
706;BME280;21234;48.690;9.016;2023-12-20T05:10:45;96169.84;;;3.78;100.00
706;BME280;21234;48.690;9.016;2023-12-20T05:13:13;96167.56;;;3.75;100.00
706;BME280;21234;48.690;9.016;2023-12-20T05:15:40;96173.31;;;3.91;100.00
706;BME280;21234;48.690;9.016;2023-12-20T05:18:07;96180.19;;;3.87;100.00
706;BME280;21234;48.690;9.016;2023-12-20T05:20:34;96186.97;;;3.96;100.00
706;BME280;21234;48.690;9.016;2023-12-20T05:23:00;96185.91;;;4.04;100.00
706;BME280;21234;48.690;9.016;2023-12-20T05:25:27;96188.19;;;4.00;100.00
706;BME280;21234;48.690;9.016;2023-12-20T05:27:54;96185.53;;;3.94;100.00
706;BME280;21234;48.690;9.016;2023-12-20T05:30:22;96192.38;;;3.90;100.00
706;BME280;21234;48.690;9.016;2023-12-20T05:32:52;96190.69;;;3.95;100.00
706;BME280;21234;48.690;9.016;2023-12-20T05:35:22;96197.72;;;3.96;100.00
706;BME280;21234;48.690;9.016;2023-12-20T05:37:51;96203.72;;;4.05;100.00
706;BME280;21234;48.690;9.016;2023-12-20T05:40:19;96190.69;;;4.02;100.00
706;BME280;21234;48.690;9.016;2023-12-20T05:42:46;96199.78;;;4.08;100.00
706;BME280;21234;48.690;9.016;2023-12-20T05:45:14;96202.47;;;4.08;100.00
706;BME280;21234;48.690;9.016;2023-12-20T05:47:42;96213.66;;;3.98;100.00
706;BME280;21234;48.690;9.016;2023-12-20T05:50:09;96213.25;;;3.94;100.00
706;BME280;21234;48.690;9.016;2023-12-20T05:52:36;96206.81;;;3.95;100.00
706;BME280;21234;48.690;9.016;2023-12-20T05:55:03;96214.91;;;3.95;100.00
706;BME280;21234;48.690;9.016;2023-12-20T05:57:29;96217.38;;;3.90;100.00
706;BME280;21234;48.690;9.016;2023-12-20T05:59:56;96214.28;;;4.00;100.00
706;BME280;21234;48.690;9.016;2023-12-20T06:02:23;96220.28;;;4.02;100.00
706;BME280;21234;48.690;9.016;2023-12-20T06:04:53;96227.31;;;4.03;100.00
706;BME280;21234;48.690;9.016;2023-12-20T06:07:20;96232.47;;;3.91;100.00
706;BME280;21234;48.690;9.016;2023-12-20T06:09:51;96247.38;;;3.94;100.00
706;BME280;21234;48.690;9.016;2023-12-20T06:12:25;96239.94;;;3.96;100.00
706;BME280;21234;48.690;9.016;2023-12-20T06:14:54;96237.47;;;3.88;100.00
706;BME280;21234;48.690;9.016;2023-12-20T06:17:20;96244.09;;;3.85;100.00
706;BME280;21234;48.690;9.016;2023-12-20T06:19:57;96234.13;;;3.92;100.00
706;BME280;21234;48.690;9.016;2023-12-20T06:22:35;96245.13;;;3.84;100.00
706;BME280;21234;48.690;9.016;2023-12-20T06:25:03;96241.00;;;3.75;100.00
706;BME280;21234;48.690;9.016;2023-12-20T06:27:30;96254.44;;;3.75;100.00
706;BME280;21234;48.690;9.016;2023-12-20T06:29:58;96250.72;;;3.76;100.00
706;BME280;21234;48.690;9.016;2023-12-20T06:32:25;96249.91;;;3.76;100.00
706;BME280;21234;48.690;9.016;2023-12-20T06:34:53;96252.38;;;3.77;100.00
706;BME280;21234;48.690;9.016;2023-12-20T06:37:21;96259.00;;;3.81;100.00
706;BME280;21234;48.690;9.016;2023-12-20T06:39:48;96244.94;;;3.79;100.00
706;BME280;21234;48.690;9.016;2023-12-20T06:42:15;96242.25;;;3.79;100.00
706;BME280;21234;48.690;9.016;2023-12-20T06:44:43;96240.38;;;3.80;100.00
706;BME280;21234;48.690;9.016;2023-12-20T06:47:10;96239.34;;;3.81;100.00
706;BME280;21234;48.690;9.016;2023-12-20T06:49:38;96242.03;;;3.87;100.00
706;BME280;21234;48.690;9.016;2023-12-20T06:52:05;96255.03;;;3.97;100.00
706;BME280;21234;48.690;9.016;2023-12-20T06:54:33;96260.00;;;3.93;100.00
706;BME280;21234;48.690;9.016;2023-12-20T06:57:00;96266.00;;;3.95;100.00
706;BME280;21234;48.690;9.016;2023-12-20T06:59:28;96272.03;;;3.84;100.00
706;BME280;21234;48.690;9.016;2023-12-20T07:01:55;96276.56;;;3.90;100.00
706;BME280;21234;48.690;9.016;2023-12-20T07:04:23;96270.38;;;3.90;100.00
706;BME280;21234;48.690;9.016;2023-12-20T07:06:49;96271.41;;;3.89;100.00
706;BME280;21234;48.690;9.016;2023-12-20T07:09:19;96270.13;;;3.91;100.00
706;BME280;21234;48.690;9.016;2023-12-20T07:11:48;96272.44;;;3.88;100.00
706;BME280;21234;48.690;9.016;2023-12-20T07:14:14;96274.50;;;3.86;100.00
706;BME280;21234;48.690;9.016;2023-12-20T07:16:41;96284.81;;;3.95;100.00
706;BME280;21234;48.690;9.016;2023-12-20T07:19:08;96291.66;;;3.91;100.00
706;BME280;21234;48.690;9.016;2023-12-20T07:21:35;96295.78;;;4.00;100.00
706;BME280;21234;48.690;9.016;2023-12-20T07:24:02;96305.53;;;3.88;100.00
706;BME280;21234;48.690;9.016;2023-12-20T07:26:29;96307.41;;;3.88;100.00
706;BME280;21234;48.690;9.016;2023-12-20T07:28:57;96315.69;;;3.86;100.00
706;BME280;21234;48.690;9.016;2023-12-20T07:31:24;96326.41;;;3.93;100.00
706;BME280;21234;48.690;9.016;2023-12-20T07:33:51;96326.03;;;3.89;100.00
706;BME280;21234;48.690;9.016;2023-12-20T07:36:19;96332.22;;;3.77;100.00
706;BME280;21234;48.690;9.016;2023-12-20T07:38:46;96329.34;;;3.85;100.00
706;BME280;21234;48.690;9.016;2023-12-20T07:41:13;96331.19;;;3.84;100.00
706;BME280;21234;48.690;9.016;2023-12-20T07:43:41;96328.28;;;3.79;100.00
706;BME280;21234;48.690;9.016;2023-12-20T07:46:09;96322.28;;;3.90;100.00
706;BME280;21234;48.690;9.016;2023-12-20T07:48:36;96328.09;;;3.87;100.00
706;BME280;21234;48.690;9.016;2023-12-20T07:51:03;96340.31;;;3.90;100.00
706;BME280;21234;48.690;9.016;2023-12-20T07:53:31;96335.31;;;3.93;100.00
706;BME280;21234;48.690;9.016;2023-12-20T07:55:57;96328.91;;;3.94;100.00
706;BME280;21234;48.690;9.016;2023-12-20T07:58:24;96335.50;;;3.92;100.00
706;BME280;21234;48.690;9.016;2023-12-20T08:00:51;96339.66;;;4.01;100.00
706;BME280;21234;48.690;9.016;2023-12-20T08:03:19;96340.06;;;3.98;100.00
706;BME280;21234;48.690;9.016;2023-12-20T08:05:46;96332.22;;;3.90;100.00
706;BME280;21234;48.690;9.016;2023-12-20T08:08:12;96330.16;;;3.79;100.00
706;BME280;21234;48.690;9.016;2023-12-20T08:10:39;96328.91;;;3.81;100.00
706;BME280;21234;48.690;9.016;2023-12-20T08:13:05;96333.84;;;3.91;100.00
706;BME280;21234;48.690;9.016;2023-12-20T08:15:33;96341.31;;;3.82;100.00
706;BME280;21234;48.690;9.016;2023-12-20T08:17:59;96341.72;;;3.79;100.00
706;BME280;21234;48.690;9.016;2023-12-20T08:20:27;96342.16;;;3.83;100.00
706;BME280;21234;48.690;9.016;2023-12-20T08:22:54;96345.44;;;3.91;100.00
706;BME280;21234;48.690;9.016;2023-12-20T08:25:21;96348.78;;;3.87;100.00
706;BME280;21234;48.690;9.016;2023-12-20T08:27:47;96353.13;;;3.81;100.00
706;BME280;21234;48.690;9.016;2023-12-20T08:30:14;96356.00;;;3.73;100.00
706;BME280;21234;48.690;9.016;2023-12-20T08:32:42;96354.53;;;3.70;100.00
706;BME280;21234;48.690;9.016;2023-12-20T08:35:16;96355.56;;;3.63;100.00
706;BME280;21234;48.690;9.016;2023-12-20T08:38:03;96363.63;;;3.63;100.00
706;BME280;21234;48.690;9.016;2023-12-20T08:40:42;96355.78;;;3.55;100.00
706;BME280;21234;48.690;9.016;2023-12-20T08:43:18;96362.38;;;3.59;100.00
706;BME280;21234;48.690;9.016;2023-12-20T08:45:54;96376.66;;;3.53;100.00
706;BME280;21234;48.690;9.016;2023-12-20T08:48:27;96380.38;;;3.52;100.00
706;BME280;21234;48.690;9.016;2023-12-20T08:50:54;96384.09;;;3.51;100.00
706;BME280;21234;48.690;9.016;2023-12-20T08:53:22;96384.50;;;3.48;100.00
706;BME280;21234;48.690;9.016;2023-12-20T08:55:51;96391.53;;;3.49;100.00
706;BME280;21234;48.690;9.016;2023-12-20T08:58:18;96398.34;;;3.45;100.00
706;BME280;21234;48.690;9.016;2023-12-20T09:00:45;96403.22;;;3.28;100.00
706;BME280;21234;48.690;9.016;2023-12-20T09:03:12;96397.03;;;3.27;100.00
706;BME280;21234;48.690;9.016;2023-12-20T09:05:38;96404.06;;;3.22;100.00
706;BME280;21234;48.690;9.016;2023-12-20T09:08:05;96392.88;;;3.18;100.00
706;BME280;21234;48.690;9.016;2023-12-20T09:10:34;96376.50;;;3.07;100.00
706;BME280;21234;48.690;9.016;2023-12-20T09:13:01;96391.16;;;3.04;100.00
706;BME280;21234;48.690;9.016;2023-12-20T09:15:28;96385.78;;;3.04;100.00
706;BME280;21234;48.690;9.016;2023-12-20T09:17:55;96384.53;;;3.00;100.00
706;BME280;21234;48.690;9.016;2023-12-20T09:20:22;96390.41;;;3.17;100.00
706;BME280;21234;48.690;9.016;2023-12-20T09:22:49;96388.34;;;3.25;100.00
706;BME280;21234;48.690;9.016;2023-12-20T09:25:16;96394.38;;;3.34;100.00
706;BME280;21234;48.690;9.016;2023-12-20T09:27:44;96396.25;;;3.40;100.00
706;BME280;21234;48.690;9.016;2023-12-20T09:30:11;96395.47;;;3.53;100.00
706;BME280;21234;48.690;9.016;2023-12-20T09:32:38;96392.97;;;3.58;100.00
706;BME280;21234;48.690;9.016;2023-12-20T09:35:05;96393.81;;;3.58;100.00
706;BME280;21234;48.690;9.016;2023-12-20T09:37:34;96393.84;;;3.71;100.00
706;BME280;21234;48.690;9.016;2023-12-20T09:40:00;96399.84;;;3.74;100.00
706;BME280;21234;48.690;9.016;2023-12-20T09:42:33;96411.22;;;3.69;100.00
706;BME280;21234;48.690;9.016;2023-12-20T09:45:08;96414.75;;;3.76;100.00
706;BME280;21234;48.690;9.016;2023-12-20T09:47:36;96413.72;;;3.77;100.00
706;BME280;21234;48.690;9.016;2023-12-20T09:50:03;96404.19;;;3.68;100.00
706;BME280;21234;48.690;9.016;2023-12-20T09:52:30;96408.09;;;3.65;100.00
706;BME280;21234;48.690;9.016;2023-12-20T09:54:58;96428.16;;;3.56;100.00
706;BME280;21234;48.690;9.016;2023-12-20T09:57:25;96424.00;;;3.60;100.00
706;BME280;21234;48.690;9.016;2023-12-20T09:59:51;96420.72;;;3.65;100.00
706;BME280;21234;48.690;9.016;2023-12-20T10:02:21;96414.34;;;3.92;100.00
706;BME280;21234;48.690;9.016;2023-12-20T10:04:52;96415.81;;;4.28;100.00
706;BME280;21234;48.690;9.016;2023-12-20T10:07:19;96405.06;;;4.54;100.00
706;BME280;21234;48.690;9.016;2023-12-20T10:09:47;96407.50;;;4.56;100.00
706;BME280;21234;48.690;9.016;2023-12-20T10:12:14;96405.25;;;4.46;100.00
706;BME280;21234;48.690;9.016;2023-12-20T10:14:41;96410.22;;;4.23;96.13
706;BME280;21234;48.690;9.016;2023-12-20T10:17:08;96415.22;;;4.13;97.60
706;BME280;21234;48.690;9.016;2023-12-20T10:19:37;96417.25;;;3.97;95.85
706;BME280;21234;48.690;9.016;2023-12-20T10:22:04;96407.13;;;3.99;99.27
706;BME280;21234;48.690;9.016;2023-12-20T10:24:31;96406.06;;;3.94;96.96
706;BME280;21234;48.690;9.016;2023-12-20T10:27:02;96396.16;;;4.01;97.80
706;BME280;21234;48.690;9.016;2023-12-20T10:29:33;96384.56;;;3.94;96.81
706;BME280;21234;48.690;9.016;2023-12-20T10:32:21;96376.47;;;3.94;97.45
706;BME280;21234;48.690;9.016;2023-12-20T10:34:51;96373.78;;;3.94;98.09
706;BME280;21234;48.690;9.016;2023-12-20T10:37:17;96382.50;;;3.89;97.80
706;BME280;21234;48.690;9.016;2023-12-20T10:39:48;96385.59;;;3.86;95.54
706;BME280;21234;48.690;9.016;2023-12-20T10:42:17;96368.84;;;3.84;95.23
706;BME280;21234;48.690;9.016;2023-12-20T10:44:44;96372.56;;;3.83;97.62
706;BME280;21234;48.690;9.016;2023-12-20T10:47:13;96370.06;;;3.95;97.75
706;BME280;21234;48.690;9.016;2023-12-20T10:49:42;96376.06;;;3.97;96.25
706;BME280;21234;48.690;9.016;2023-12-20T10:52:13;96379.59;;;3.91;95.16
706;BME280;21234;48.690;9.016;2023-12-20T10:54:41;96374.00;;;3.92;96.16
706;BME280;21234;48.690;9.016;2023-12-20T10:57:08;96384.75;;;3.92;95.46
706;BME280;21234;48.690;9.016;2023-12-20T10:59:37;96377.53;;;3.86;92.13
706;BME280;21234;48.690;9.016;2023-12-20T11:02:05;96373.19;;;3.85;94.53
706;BME280;21234;48.690;9.016;2023-12-20T11:04:39;96374.00;;;3.92;95.48
706;BME280;21234;48.690;9.016;2023-12-20T11:07:19;96373.78;;;3.94;95.70
706;BME280;21234;48.690;9.016;2023-12-20T11:09:56;96375.25;;;3.90;91.35
706;BME280;21234;48.690;9.016;2023-12-20T11:12:34;96368.84;;;3.97;94.04
706;BME280;21234;48.690;9.016;2023-12-20T11:15:04;96381.88;;;3.87;87.88
706;BME280;21234;48.690;9.016;2023-12-20T11:17:32;96367.41;;;3.88;90.98
706;BME280;21234;48.690;9.016;2023-12-20T11:20:07;96374.84;;;3.80;88.27
706;BME280;21234;48.690;9.016;2023-12-20T11:22:37;96372.78;;;3.82;89.08
706;BME280;21234;48.690;9.016;2023-12-20T11:25:08;96364.69;;;3.95;90.52
706;BME280;21234;48.690;9.016;2023-12-20T11:27:37;96359.94;;;4.10;93.71
706;BME280;21234;48.690;9.016;2023-12-20T11:30:08;96362.84;;;4.02;89.58
706;BME280;21234;48.690;9.016;2023-12-20T11:32:36;96367.81;;;3.98;89.60
706;BME280;21234;48.690;9.016;2023-12-20T11:35:17;96365.53;;;3.89;89.15
706;BME280;21234;48.690;9.016;2023-12-20T11:37:47;96363.03;;;3.94;89.87
706;BME280;21234;48.690;9.016;2023-12-20T11:40:16;96359.53;;;3.87;88.36
706;BME280;21234;48.690;9.016;2023-12-20T11:42:44;96357.06;;;3.85;86.30
706;BME280;21234;48.690;9.016;2023-12-20T11:45:13;96352.69;;;3.78;85.21
706;BME280;21234;48.690;9.016;2023-12-20T11:47:43;96360.31;;;3.67;83.64
706;BME280;21234;48.690;9.016;2023-12-20T11:50:11;96362.63;;;3.77;85.35
706;BME280;21234;48.690;9.016;2023-12-20T11:52:38;96371.50;;;3.71;84.98
706;BME280;21234;48.690;9.016;2023-12-20T11:55:08;96371.72;;;3.76;86.75
706;BME280;21234;48.690;9.016;2023-12-20T11:57:38;96366.13;;;3.71;87.03
706;BME280;21234;48.690;9.016;2023-12-20T12:00:07;96362.19;;;3.67;86.34
706;BME280;21234;48.690;9.016;2023-12-20T12:02:34;96354.31;;;3.59;86.49
706;BME280;21234;48.690;9.016;2023-12-20T12:05:02;96354.53;;;3.57;86.98
706;BME280;21234;48.690;9.016;2023-12-20T12:07:31;96342.97;;;3.57;88.23
706;BME280;21234;48.690;9.016;2023-12-20T12:09:58;96338.41;;;3.70;89.81
706;BME280;21234;48.690;9.016;2023-12-20T12:12:26;96338.63;;;3.82;89.56
706;BME280;21234;48.690;9.016;2023-12-20T12:14:54;96329.13;;;3.73;88.33
706;BME280;21234;48.690;9.016;2023-12-20T12:17:23;96327.88;;;3.82;90.05
706;BME280;21234;48.690;9.016;2023-12-20T12:19:50;96326.63;;;3.78;88.11
706;BME280;21234;48.690;9.016;2023-12-20T12:22:18;96321.25;;;3.98;90.72
706;BME280;21234;48.690;9.016;2023-12-20T12:24:46;96328.06;;;3.94;86.79
706;BME280;21234;48.690;9.016;2023-12-20T12:27:15;96323.50;;;3.94;85.34
706;BME280;21234;48.690;9.016;2023-12-20T12:30:03;96321.03;;;4.06;86.09
706;BME280;21234;48.690;9.016;2023-12-20T12:32:33;96320.41;;;4.11;87.07
706;BME280;21234;48.690;9.016;2023-12-20T12:35:00;96313.78;;;4.07;84.51
706;BME280;21234;48.690;9.016;2023-12-20T12:37:28;96302.81;;;4.08;84.41
706;BME280;21234;48.690;9.016;2023-12-20T12:39:55;96312.56;;;4.09;84.21
706;BME280;21234;48.690;9.016;2023-12-20T12:42:23;96309.63;;;4.24;85.95
706;BME280;21234;48.690;9.016;2023-12-20T12:44:54;96312.31;;;4.24;82.76
706;BME280;21234;48.690;9.016;2023-12-20T12:47:23;96304.84;;;4.39;84.29
706;BME280;21234;48.690;9.016;2023-12-20T12:49:51;96306.72;;;4.38;82.48
706;BME280;21234;48.690;9.016;2023-12-20T12:52:18;96301.94;;;4.41;82.13
706;BME280;21234;48.690;9.016;2023-12-20T12:54:45;96306.09;;;4.36;82.56
706;BME280;21234;48.690;9.016;2023-12-20T12:57:13;96306.69;;;4.45;84.91
706;BME280;21234;48.690;9.016;2023-12-20T12:59:40;96309.19;;;4.40;82.92
706;BME280;21234;48.690;9.016;2023-12-20T13:02:08;96311.06;;;4.39;83.23
706;BME280;21234;48.690;9.016;2023-12-20T13:04:37;96310.22;;;4.32;81.74
706;BME280;21234;48.690;9.016;2023-12-20T13:07:04;96319.13;;;4.26;83.15
706;BME280;21234;48.690;9.016;2023-12-20T13:09:31;96306.72;;;4.25;83.20
706;BME280;21234;48.690;9.016;2023-12-20T13:11:58;96313.13;;;4.31;84.62
706;BME280;21234;48.690;9.016;2023-12-20T13:14:28;96309.63;;;4.30;84.39
706;BME280;21234;48.690;9.016;2023-12-20T13:16:55;96313.75;;;4.33;82.26
706;BME280;21234;48.690;9.016;2023-12-20T13:19:23;96311.06;;;4.33;83.98
706;BME280;21234;48.690;9.016;2023-12-20T13:21:51;96296.78;;;4.26;82.48
706;BME280;21234;48.690;9.016;2023-12-20T13:24:18;96294.28;;;4.31;83.76
706;BME280;21234;48.690;9.016;2023-12-20T13:26:45;96293.25;;;4.45;82.41
706;BME280;21234;48.690;9.016;2023-12-20T13:29:12;96298.97;;;4.62;83.28